createdAt,value
2018-03-29T00:00:37.149Z,0.00
2018-03-29T00:01:37.144Z,0.00
2018-03-29T00:02:37.137Z,0.00
2018-03-29T00:03:37.128Z,0.00
2018-03-29T00:04:37.114Z,0.00
2018-03-29T00:05:37.110Z,0.00
2018-03-29T00:06:37.116Z,0.00
2018-03-29T00:07:37.096Z,0.00
2018-03-29T00:08:37.083Z,0.00
2018-03-29T00:09:37.076Z,0.00
2018-03-29T00:10:37.064Z,0.00
2018-03-29T00:11:37.058Z,0.00
2018-03-29T00:12:37.051Z,0.00
2018-03-29T00:13:37.044Z,0.00
2018-03-29T00:14:37.029Z,0.00
2018-03-29T00:15:37.024Z,0.00
2018-03-29T00:16:37.014Z,0.00
2018-03-29T00:17:37.008Z,0.00
2018-03-29T00:18:36.999Z,0.00
2018-03-29T00:19:36.991Z,0.00
2018-03-29T00:20:36.969Z,0.00
2018-03-29T00:21:36.990Z,0.00
2018-03-29T00:22:36.965Z,0.00
2018-03-29T00:23:36.955Z,0.00
2018-03-29T00:24:36.949Z,0.00
2018-03-29T00:25:36.941Z,0.00
2018-03-29T00:26:36.931Z,0.00
2018-03-29T00:27:36.924Z,0.00
2018-03-29T00:28:36.914Z,0.00
2018-03-29T00:29:36.905Z,0.00
2018-03-29T00:30:36.898Z,0.00
2018-03-29T00:31:36.891Z,0.00
2018-03-29T00:32:36.881Z,0.00
2018-03-29T00:33:36.873Z,0.00
2018-03-29T00:34:36.861Z,0.00
2018-03-29T00:35:36.852Z,0.00
2018-03-29T00:36:36.861Z,0.00
2018-03-29T00:37:36.842Z,0.00
2018-03-29T00:38:36.829Z,0.00
2018-03-29T00:39:36.822Z,0.00
2018-03-29T00:40:36.812Z,0.00
2018-03-29T00:41:36.805Z,0.00
2018-03-29T00:42:36.800Z,0.00
2018-03-29T00:43:36.793Z,0.00
2018-03-29T00:44:36.778Z,0.00
2018-03-29T00:45:36.779Z,0.00
2018-03-29T00:46:36.766Z,0.00
2018-03-29T00:47:36.762Z,0.00
2018-03-29T00:48:36.750Z,0.00
2018-03-29T00:49:36.738Z,0.00
2018-03-29T00:50:36.733Z,0.00
2018-03-29T00:51:36.727Z,0.00
2018-03-29T00:52:36.721Z,0.00
2018-03-29T00:53:36.712Z,0.00
2018-03-29T00:54:36.703Z,0.00
2018-03-29T00:55:36.693Z,0.00
2018-03-29T00:56:36.702Z,0.00
2018-03-29T00:57:36.684Z,0.00
2018-03-29T00:58:36.676Z,0.00
2018-03-29T00:59:36.665Z,0.00
2018-03-29T01:00:36.653Z,0.00
2018-03-29T01:01:36.647Z,0.00
2018-03-29T01:02:36.638Z,0.00
2018-03-29T01:03:36.633Z,0.00
2018-03-29T01:04:36.627Z,0.00
2018-03-29T01:05:36.612Z,0.00
2018-03-29T01:06:36.610Z,0.00
2018-03-29T01:07:36.602Z,0.00
2018-03-29T01:08:36.590Z,0.00
2018-03-29T01:09:36.583Z,0.00
2018-03-29T01:10:36.573Z,0.00
2018-03-29T01:11:36.569Z,0.00
2018-03-29T01:12:36.558Z,0.00
2018-03-29T01:13:36.552Z,0.00
2018-03-29T01:14:36.546Z,0.00
2018-03-29T01:15:43.521Z,0.00
2018-03-29T01:16:36.527Z,0.00
2018-03-29T01:17:36.519Z,0.00
2018-03-29T01:18:36.511Z,0.00
2018-03-29T01:19:36.507Z,0.00
2018-03-29T01:20:36.497Z,0.00
2018-03-29T01:21:36.486Z,0.00
2018-03-29T01:22:36.479Z,0.00
2018-03-29T01:23:36.474Z,0.00
2018-03-29T01:24:36.464Z,0.00
2018-03-29T01:25:36.460Z,0.00
2018-03-29T01:26:36.448Z,0.00
2018-03-29T01:27:36.445Z,0.00
2018-03-29T01:28:36.433Z,0.00
2018-03-29T01:29:36.426Z,0.00
2018-03-29T01:30:36.437Z,0.00
2018-03-29T01:31:36.414Z,0.00
2018-03-29T01:32:36.412Z,0.00
2018-03-29T01:33:36.398Z,0.00
2018-03-29T01:34:36.384Z,0.00
2018-03-29T01:35:36.381Z,0.00
2018-03-29T01:36:36.379Z,0.00
2018-03-29T01:37:36.365Z,0.00
2018-03-29T01:38:36.357Z,0.00
2018-03-29T01:39:36.346Z,0.00
2018-03-29T01:40:36.342Z,0.00
2018-03-29T01:41:36.329Z,0.00
2018-03-29T01:42:36.326Z,0.00
2018-03-29T01:43:36.319Z,0.00
2018-03-29T01:44:36.313Z,0.00
2018-03-29T01:45:36.301Z,0.00
2018-03-29T01:46:36.297Z,0.00
2018-03-29T01:47:36.290Z,0.00
2018-03-29T01:48:36.280Z,0.00
2018-03-29T01:49:36.273Z,0.00
2018-03-29T01:50:36.269Z,0.00
2018-03-29T01:51:36.256Z,0.00
2018-03-29T01:52:36.249Z,0.00
2018-03-29T01:53:36.243Z,0.00
2018-03-29T01:54:36.235Z,0.00
2018-03-29T01:55:36.228Z,0.00
2018-03-29T01:56:36.221Z,0.00
2018-03-29T01:57:36.219Z,0.00
2018-03-29T01:58:36.208Z,0.00
2018-03-29T01:59:36.202Z,0.00
2018-03-29T02:00:36.195Z,0.00
2018-03-29T02:01:36.194Z,0.00
2018-03-29T02:02:36.173Z,0.00
2018-03-29T02:03:36.171Z,0.00
2018-03-29T02:04:36.163Z,0.00
2018-03-29T02:05:36.154Z,0.00
2018-03-29T02:06:36.146Z,0.00
2018-03-29T02:07:36.138Z,0.00
2018-03-29T02:08:36.131Z,0.00
2018-03-29T02:09:36.124Z,0.00
2018-03-29T02:10:36.117Z,0.00
2018-03-29T02:11:36.107Z,0.00
2018-03-29T02:12:36.099Z,0.00
2018-03-29T02:13:36.091Z,0.00
2018-03-29T02:14:36.086Z,0.00
2018-03-29T02:15:36.079Z,0.00
2018-03-29T02:16:36.068Z,0.00
2018-03-29T02:17:36.062Z,0.00
2018-03-29T02:18:36.057Z,0.00
2018-03-29T02:19:36.050Z,0.00
2018-03-29T02:20:36.042Z,0.00
2018-03-29T02:21:36.034Z,0.00
2018-03-29T02:22:36.024Z,0.00
2018-03-29T02:23:36.015Z,0.00
2018-03-29T02:24:36.015Z,0.00
2018-03-29T02:25:36.009Z,0.00
2018-03-29T02:26:36.002Z,0.00
2018-03-29T02:27:35.993Z,0.00
2018-03-29T02:28:35.983Z,0.00
2018-03-29T02:29:35.972Z,0.00
2018-03-29T02:30:35.967Z,0.00
2018-03-29T02:31:35.961Z,0.00
2018-03-29T02:32:35.947Z,0.00
2018-03-29T02:33:35.944Z,0.00
2018-03-29T02:34:35.938Z,0.00
2018-03-29T02:35:35.931Z,0.00
2018-03-29T02:36:35.922Z,0.00
2018-03-29T02:37:35.915Z,0.00
2018-03-29T02:38:35.903Z,0.00
2018-03-29T02:39:35.900Z,0.00
2018-03-29T02:40:35.891Z,0.00
2018-03-29T02:41:35.887Z,0.00
2018-03-29T02:42:35.870Z,0.00
2018-03-29T02:43:35.865Z,0.00
2018-03-29T02:44:35.850Z,0.00
2018-03-29T02:45:35.851Z,0.00
2018-03-29T02:46:35.846Z,0.00
2018-03-29T02:47:35.840Z,0.00
2018-03-29T02:48:35.828Z,0.00
2018-03-29T02:49:35.830Z,0.00
2018-03-29T02:50:35.815Z,0.00
2018-03-29T02:51:35.806Z,0.00
2018-03-29T02:52:35.803Z,0.00
2018-03-29T02:53:35.802Z,0.00
2018-03-29T02:54:35.780Z,0.00
2018-03-29T02:55:35.771Z,0.00
2018-03-29T02:56:35.765Z,0.00
2018-03-29T02:57:35.761Z,0.00
2018-03-29T02:58:35.757Z,0.00
2018-03-29T02:59:35.743Z,0.00
2018-03-29T03:00:35.737Z,0.00
2018-03-29T03:01:35.726Z,0.00
2018-03-29T03:02:35.721Z,0.00
2018-03-29T03:03:35.717Z,0.00
2018-03-29T03:04:36.474Z,0.00
2018-03-29T03:05:35.697Z,0.00
2018-03-29T03:06:35.693Z,0.00
2018-03-29T03:07:35.686Z,0.00
2018-03-29T03:08:35.679Z,0.00
2018-03-29T03:09:35.669Z,0.00
2018-03-29T03:10:35.660Z,0.00
2018-03-29T03:11:35.655Z,0.00
2018-03-29T03:12:35.644Z,0.00
2018-03-29T03:13:35.638Z,0.00
2018-03-29T03:14:35.631Z,0.00
2018-03-29T03:15:35.623Z,0.00
2018-03-29T03:16:35.615Z,0.00
2018-03-29T03:17:35.609Z,0.00
2018-03-29T03:18:35.601Z,0.00
2018-03-29T03:19:35.592Z,0.00
2018-03-29T03:20:35.584Z,0.00
2018-03-29T03:21:35.580Z,0.00
2018-03-29T03:22:35.572Z,0.00
2018-03-29T03:23:35.563Z,0.00
2018-03-29T03:24:35.558Z,0.00
2018-03-29T03:25:35.548Z,0.00
2018-03-29T03:26:35.541Z,0.00
2018-03-29T03:27:35.534Z,0.00
2018-03-29T03:28:35.523Z,0.00
2018-03-29T03:29:35.518Z,0.00
2018-03-29T03:30:35.512Z,0.00
2018-03-29T03:31:35.503Z,0.00
2018-03-29T03:32:35.492Z,0.00
2018-03-29T03:33:35.489Z,0.00
2018-03-29T03:34:35.481Z,0.00
2018-03-29T03:35:35.472Z,0.00
2018-03-29T03:36:35.465Z,0.00
2018-03-29T03:37:35.465Z,0.00
2018-03-29T03:38:35.448Z,0.00
2018-03-29T03:39:35.447Z,0.00
2018-03-29T03:40:35.433Z,0.00
2018-03-29T03:41:35.438Z,0.00
2018-03-29T03:42:35.437Z,0.00
2018-03-29T03:43:35.413Z,0.00
2018-03-29T03:44:35.409Z,0.00
2018-03-29T03:45:35.397Z,0.00
2018-03-29T03:46:35.392Z,0.00
2018-03-29T03:47:35.384Z,0.00
2018-03-29T03:48:35.369Z,0.00
2018-03-29T03:49:35.369Z,0.00
2018-03-29T03:50:35.355Z,0.00
2018-03-29T03:51:35.350Z,0.00
2018-03-29T03:52:35.345Z,0.00
2018-03-29T03:53:35.334Z,0.00
2018-03-29T03:54:35.329Z,0.00
2018-03-29T03:55:35.361Z,0.00
2018-03-29T03:56:35.314Z,0.00
2018-03-29T03:57:35.302Z,0.00
2018-03-29T03:58:35.300Z,0.00
2018-03-29T03:59:35.292Z,0.00
2018-03-29T04:00:35.285Z,0.00
2018-03-29T04:01:35.274Z,0.00
2018-03-29T04:02:35.273Z,0.00
2018-03-29T04:03:35.255Z,0.00
2018-03-29T04:04:35.255Z,0.00
2018-03-29T04:05:35.242Z,0.00
2018-03-29T04:06:35.237Z,0.00
2018-03-29T04:07:35.227Z,0.00
2018-03-29T04:08:35.223Z,0.00
2018-03-29T04:09:35.217Z,0.00
2018-03-29T04:10:35.203Z,0.00
2018-03-29T04:11:35.201Z,0.00
2018-03-29T04:12:35.210Z,0.00
2018-03-29T04:13:35.191Z,0.00
2018-03-29T04:14:35.176Z,0.00
2018-03-29T04:15:35.164Z,0.00
2018-03-29T04:16:35.160Z,0.00
2018-03-29T04:17:35.152Z,0.00
2018-03-29T04:18:35.146Z,0.00
2018-03-29T04:19:35.140Z,0.00
2018-03-29T04:20:35.128Z,0.00
2018-03-29T04:21:35.124Z,0.00
2018-03-29T04:22:35.118Z,0.00
2018-03-29T04:23:35.107Z,0.00
2018-03-29T04:24:35.090Z,0.00
2018-03-29T04:25:35.093Z,0.00
2018-03-29T04:26:35.082Z,0.00
2018-03-29T04:27:35.080Z,0.00
2018-03-29T04:28:35.097Z,0.00
2018-03-29T04:29:35.063Z,0.00
2018-03-29T04:30:35.049Z,0.00
2018-03-29T04:31:35.043Z,0.00
2018-03-29T04:32:35.038Z,0.00
2018-03-29T04:33:35.026Z,0.00
2018-03-29T04:34:35.022Z,0.00
2018-03-29T04:35:35.015Z,0.00
2018-03-29T04:36:35.003Z,0.00
2018-03-29T04:37:35.000Z,0.00
2018-03-29T04:38:34.993Z,0.00
2018-03-29T04:39:34.984Z,0.00
2018-03-29T04:40:34.976Z,0.00
2018-03-29T04:41:34.968Z,0.00
2018-03-29T04:42:34.996Z,0.00
2018-03-29T04:43:34.954Z,0.00
2018-03-29T04:44:34.944Z,0.00
2018-03-29T04:45:34.930Z,0.00
2018-03-29T04:46:34.929Z,0.00
2018-03-29T04:47:34.920Z,0.00
2018-03-29T04:48:34.915Z,0.00
2018-03-29T04:49:34.908Z,0.00
2018-03-29T04:50:34.897Z,0.00
2018-03-29T04:51:34.890Z,0.00
2018-03-29T04:52:34.882Z,0.00
2018-03-29T04:53:34.870Z,0.00
2018-03-29T04:54:34.870Z,0.00
2018-03-29T04:55:34.866Z,0.00
2018-03-29T04:56:34.848Z,0.00
2018-03-29T04:57:34.844Z,0.00
2018-03-29T04:58:34.832Z,0.00
2018-03-29T04:59:34.827Z,0.00
2018-03-29T05:00:34.822Z,0.00
2018-03-29T05:01:34.813Z,0.00
2018-03-29T05:02:34.811Z,0.00
2018-03-29T05:03:34.796Z,0.00
2018-03-29T05:04:34.794Z,0.00
2018-03-29T05:05:34.788Z,0.00
2018-03-29T05:06:34.772Z,0.00
2018-03-29T05:07:34.761Z,0.00
2018-03-29T05:08:34.773Z,0.00
2018-03-29T05:09:34.747Z,0.00
2018-03-29T05:10:34.741Z,0.00
2018-03-29T05:11:34.732Z,0.00
2018-03-29T05:12:34.725Z,0.00
2018-03-29T05:13:34.715Z,5.63
2018-03-29T05:14:34.708Z,5.63
2018-03-29T05:15:34.704Z,5.63
2018-03-29T05:16:34.690Z,5.63
2018-03-29T05:17:34.682Z,5.63
2018-03-29T05:18:34.677Z,5.63
2018-03-29T05:19:34.670Z,5.63
2018-03-29T05:20:34.657Z,5.63
2018-03-29T05:21:34.653Z,11.25
2018-03-29T05:22:34.644Z,11.25
2018-03-29T05:23:34.667Z,11.25
2018-03-29T05:24:34.631Z,11.25
2018-03-29T05:25:34.623Z,11.25
2018-03-29T05:26:34.614Z,11.25
2018-03-29T05:27:34.607Z,11.25
2018-03-29T05:28:34.597Z,16.88
2018-03-29T05:29:34.591Z,16.88
2018-03-29T05:30:34.580Z,22.50
2018-03-29T05:31:34.575Z,22.50
2018-03-29T05:32:34.566Z,22.50
2018-03-29T05:33:34.555Z,22.50
2018-03-29T05:34:34.551Z,22.50
2018-03-29T05:35:34.546Z,28.13
2018-03-29T05:36:34.537Z,28.13
2018-03-29T05:37:34.526Z,33.75
2018-03-29T05:38:34.523Z,33.75
2018-03-29T05:39:34.511Z,33.75
2018-03-29T05:40:34.505Z,33.75
2018-03-29T05:41:34.499Z,39.38
2018-03-29T05:42:34.485Z,39.38
2018-03-29T05:43:34.479Z,45.00
2018-03-29T05:44:34.474Z,45.00
2018-03-29T05:45:34.467Z,45.00
2018-03-29T05:46:34.461Z,39.38
2018-03-29T05:47:34.455Z,39.38
2018-03-29T05:48:34.444Z,39.38
2018-03-29T05:49:34.435Z,45.00
2018-03-29T05:50:34.426Z,50.63
2018-03-29T05:51:34.424Z,56.25
2018-03-29T05:52:34.412Z,56.25
2018-03-29T05:53:34.404Z,61.88
2018-03-29T05:54:34.432Z,61.88
2018-03-29T05:55:34.391Z,67.50
2018-03-29T05:56:34.379Z,67.50
2018-03-29T05:57:34.428Z,73.13
2018-03-29T05:58:34.369Z,73.13
2018-03-29T05:59:34.355Z,78.75
2018-03-29T06:00:34.350Z,78.75
2018-03-29T06:01:34.341Z,78.75
2018-03-29T06:02:34.334Z,84.38
2018-03-29T06:03:34.325Z,84.38
2018-03-29T06:04:34.318Z,84.38
2018-03-29T06:05:34.309Z,84.38
2018-03-29T06:06:34.303Z,84.38
2018-03-29T06:07:34.298Z,84.38
2018-03-29T06:08:34.286Z,90.00
2018-03-29T06:09:34.279Z,90.00
2018-03-29T06:10:34.268Z,90.00
2018-03-29T06:11:34.264Z,90.00
2018-03-29T06:12:34.255Z,90.00
2018-03-29T06:13:34.247Z,90.00
2018-03-29T06:14:34.239Z,95.63
2018-03-29T06:15:34.230Z,95.63
2018-03-29T06:16:34.221Z,101.25
2018-03-29T06:17:34.215Z,106.88
2018-03-29T06:18:34.214Z,106.88
2018-03-29T06:19:34.202Z,112.50
2018-03-29T06:20:34.193Z,118.13
2018-03-29T06:21:34.187Z,123.75
2018-03-29T06:22:34.176Z,123.75
2018-03-29T06:23:34.171Z,135.00
2018-03-29T06:24:34.161Z,135.00
2018-03-29T06:25:34.152Z,140.63
2018-03-29T06:26:34.146Z,140.63
2018-03-29T06:27:34.141Z,146.25
2018-03-29T06:28:34.129Z,151.88
2018-03-29T06:29:34.121Z,163.13
2018-03-29T06:30:34.114Z,163.13
2018-03-29T06:31:34.108Z,163.13
2018-03-29T06:32:34.101Z,163.13
2018-03-29T06:33:34.097Z,168.75
2018-03-29T06:34:34.095Z,163.13
2018-03-29T06:35:34.074Z,157.50
2018-03-29T06:36:34.068Z,157.50
2018-03-29T06:37:34.060Z,151.88
2018-03-29T06:38:34.069Z,146.25
2018-03-29T06:39:34.044Z,146.25
2018-03-29T06:40:34.039Z,146.25
2018-03-29T06:41:34.029Z,146.25
2018-03-29T06:42:34.022Z,140.63
2018-03-29T06:43:34.015Z,140.63
2018-03-29T06:44:34.007Z,146.25
2018-03-29T06:45:34.002Z,146.25
2018-03-29T06:46:33.995Z,146.25
2018-03-29T06:47:33.986Z,140.63
2018-03-29T06:48:33.976Z,135.00
2018-03-29T06:49:33.991Z,135.00
2018-03-29T06:50:33.959Z,135.00
2018-03-29T06:51:33.958Z,135.00
2018-03-29T06:52:33.944Z,129.38
2018-03-29T06:53:33.937Z,129.38
2018-03-29T06:54:33.931Z,129.38
2018-03-29T06:55:33.981Z,146.25
2018-03-29T06:56:33.915Z,129.38
2018-03-29T06:57:33.912Z,129.38
2018-03-29T06:58:33.898Z,129.38
2018-03-29T06:59:33.890Z,129.38
2018-03-29T07:00:33.882Z,129.38
2018-03-29T07:01:33.874Z,129.38
2018-03-29T07:02:33.870Z,135.00
2018-03-29T07:03:33.858Z,135.00
2018-03-29T07:04:33.850Z,135.00
2018-03-29T07:05:33.841Z,140.63
2018-03-29T07:06:33.840Z,140.63
2018-03-29T07:07:33.829Z,140.63
2018-03-29T07:08:33.818Z,146.25
2018-03-29T07:09:33.810Z,146.25
2018-03-29T07:10:33.804Z,146.25
2018-03-29T07:11:33.792Z,146.25
2018-03-29T07:12:33.786Z,146.25
2018-03-29T07:13:33.779Z,157.50
2018-03-29T07:14:33.774Z,157.50
2018-03-29T07:15:33.764Z,146.25
2018-03-29T07:16:33.754Z,146.25
2018-03-29T07:17:33.747Z,146.25
2018-03-29T07:18:33.740Z,146.25
2018-03-29T07:19:33.743Z,146.25
2018-03-29T07:20:33.724Z,151.88
2018-03-29T07:21:33.715Z,151.88
2018-03-29T07:22:33.710Z,151.88
2018-03-29T07:23:33.701Z,151.88
2018-03-29T07:24:33.692Z,151.88
2018-03-29T07:25:33.685Z,151.88
2018-03-29T07:26:33.678Z,151.88
2018-03-29T07:27:33.672Z,157.50
2018-03-29T07:28:33.662Z,151.88
2018-03-29T07:29:33.668Z,151.88
2018-03-29T07:30:33.678Z,151.88
2018-03-29T07:31:33.637Z,151.88
2018-03-29T07:32:33.644Z,151.88
2018-03-29T07:33:33.620Z,157.50
2018-03-29T07:34:33.612Z,151.88
2018-03-29T07:35:33.612Z,157.50
2018-03-29T07:36:33.622Z,163.13
2018-03-29T07:37:33.593Z,157.50
2018-03-29T07:38:33.581Z,180.00
2018-03-29T07:39:33.573Z,180.00
2018-03-29T07:40:33.559Z,168.75
2018-03-29T07:41:33.559Z,168.75
2018-03-29T07:42:33.550Z,168.75
2018-03-29T07:43:33.541Z,174.38
2018-03-29T07:44:33.534Z,196.88
2018-03-29T07:45:33.532Z,208.13
2018-03-29T07:46:33.518Z,208.13
2018-03-29T07:47:33.515Z,202.50
2018-03-29T07:48:33.500Z,196.88
2018-03-29T07:49:33.502Z,196.88
2018-03-29T07:50:33.521Z,219.38
2018-03-29T07:51:33.485Z,241.88
2018-03-29T07:52:33.473Z,264.38
2018-03-29T07:53:33.465Z,275.63
2018-03-29T07:54:33.464Z,258.75
2018-03-29T07:55:33.451Z,258.75
2018-03-29T07:56:33.442Z,253.13
2018-03-29T07:57:33.433Z,264.38
2018-03-29T07:58:33.426Z,270.00
2018-03-29T07:59:33.421Z,270.00
2018-03-29T08:00:33.405Z,264.38
2018-03-29T08:01:33.404Z,275.63
2018-03-29T08:02:33.397Z,286.88
2018-03-29T08:03:33.389Z,303.75
2018-03-29T08:04:33.381Z,320.63
2018-03-29T08:05:33.378Z,326.25
2018-03-29T08:06:33.366Z,343.13
2018-03-29T08:07:33.353Z,348.75
2018-03-29T08:08:33.352Z,354.38
2018-03-29T08:09:33.340Z,360.00
2018-03-29T08:10:33.336Z,371.25
2018-03-29T08:11:33.338Z,382.50
2018-03-29T08:12:33.343Z,399.38
2018-03-29T08:13:33.309Z,393.75
2018-03-29T08:14:33.303Z,371.25
2018-03-29T08:15:33.302Z,382.50
2018-03-29T08:16:33.288Z,393.75
2018-03-29T08:17:33.278Z,393.75
2018-03-29T08:18:33.279Z,399.38
2018-03-29T08:19:33.281Z,388.13
2018-03-29T08:20:33.275Z,371.25
2018-03-29T08:21:33.254Z,371.25
2018-03-29T08:22:33.246Z,382.50
2018-03-29T08:23:33.268Z,371.25
2018-03-29T08:24:33.229Z,365.63
2018-03-29T08:25:33.232Z,348.75
2018-03-29T08:26:33.232Z,365.63
2018-03-29T08:27:33.204Z,371.25
2018-03-29T08:28:33.201Z,337.50
2018-03-29T08:29:33.188Z,337.50
2018-03-29T08:30:33.182Z,331.88
2018-03-29T08:31:33.175Z,303.75
2018-03-29T08:32:33.164Z,303.75
2018-03-29T08:33:33.161Z,320.63
2018-03-29T08:34:33.160Z,320.63
2018-03-29T08:35:33.163Z,331.88
2018-03-29T08:36:33.140Z,331.88
2018-03-29T08:37:33.143Z,331.88
2018-03-29T08:38:33.123Z,365.63
2018-03-29T08:39:33.121Z,365.63
2018-03-29T08:40:33.149Z,393.75
2018-03-29T08:41:33.096Z,360.00
2018-03-29T08:42:33.101Z,337.50
2018-03-29T08:43:33.086Z,320.63
2018-03-29T08:44:33.080Z,281.25
2018-03-29T08:45:33.082Z,275.63
2018-03-29T08:46:33.072Z,270.00
2018-03-29T08:47:33.064Z,286.88
2018-03-29T08:48:33.058Z,264.38
2018-03-29T08:49:33.057Z,225.00
2018-03-29T08:50:33.067Z,225.00
2018-03-29T08:51:33.048Z,264.38
2018-03-29T08:52:33.042Z,281.25
2018-03-29T08:53:33.054Z,309.38
2018-03-29T08:54:33.008Z,331.88
2018-03-29T08:55:33.000Z,354.38
2018-03-29T08:56:33.012Z,382.50
2018-03-29T08:57:33.022Z,421.88
2018-03-29T08:58:32.986Z,450.00
2018-03-29T08:59:32.979Z,489.38
2018-03-29T09:00:32.965Z,506.25
2018-03-29T09:01:32.986Z,466.88
2018-03-29T09:02:32.974Z,427.50
2018-03-29T09:03:32.943Z,388.13
2018-03-29T09:04:32.937Z,348.75
2018-03-29T09:05:32.926Z,315.00
2018-03-29T09:06:32.925Z,281.25
2018-03-29T09:07:32.926Z,258.75
2018-03-29T09:08:32.925Z,253.13
2018-03-29T09:09:32.907Z,247.50
2018-03-29T09:10:32.895Z,219.38
2018-03-29T09:11:32.878Z,202.50
2018-03-29T09:12:32.884Z,202.50
2018-03-29T09:13:32.867Z,202.50
2018-03-29T09:14:32.862Z,196.88
2018-03-29T09:15:32.854Z,208.13
2018-03-29T09:16:32.842Z,202.50
2018-03-29T09:17:32.841Z,247.50
2018-03-29T09:18:32.835Z,247.50
2018-03-29T09:19:32.830Z,247.50
2018-03-29T09:20:32.818Z,253.13
2018-03-29T09:21:32.811Z,253.13
2018-03-29T09:22:32.802Z,258.75
2018-03-29T09:23:32.794Z,286.88
2018-03-29T09:24:32.786Z,320.63
2018-03-29T09:25:32.777Z,343.13
2018-03-29T09:26:32.773Z,388.13
2018-03-29T09:27:32.765Z,421.88
2018-03-29T09:28:32.760Z,427.50
2018-03-29T09:29:32.750Z,416.25
2018-03-29T09:30:32.740Z,388.13
2018-03-29T09:31:32.735Z,309.38
2018-03-29T09:32:32.728Z,286.88
2018-03-29T09:33:32.718Z,247.50
2018-03-29T09:34:32.715Z,230.63
2018-03-29T09:35:32.701Z,219.38
2018-03-29T09:36:32.697Z,253.13
2018-03-29T09:37:32.686Z,208.13
2018-03-29T09:38:32.684Z,208.13
2018-03-29T09:39:32.674Z,213.75
2018-03-29T09:40:32.662Z,225.00
2018-03-29T09:41:32.696Z,230.63
2018-03-29T09:42:32.650Z,208.13
2018-03-29T09:43:32.644Z,213.75
2018-03-29T09:44:32.638Z,253.13
2018-03-29T09:45:32.633Z,253.13
2018-03-29T09:46:32.623Z,247.50
2018-03-29T09:47:32.617Z,247.50
2018-03-29T09:48:32.610Z,241.88
2018-03-29T09:49:32.602Z,247.50
2018-03-29T09:50:32.590Z,241.88
2018-03-29T09:51:32.590Z,241.88
2018-03-29T09:52:32.578Z,241.88
2018-03-29T09:53:32.574Z,247.50
2018-03-29T09:54:32.566Z,247.50
2018-03-29T09:55:32.560Z,219.38
2018-03-29T09:56:32.555Z,253.13
2018-03-29T09:57:32.543Z,196.88
2018-03-29T09:58:32.536Z,247.50
2018-03-29T09:59:32.534Z,253.13
2018-03-29T10:00:32.522Z,258.75
2018-03-29T10:01:32.519Z,253.13
2018-03-29T10:02:32.511Z,241.88
2018-03-29T10:03:32.501Z,253.13
2018-03-29T10:04:32.539Z,264.38
2018-03-29T10:05:32.487Z,264.38
2018-03-29T10:06:32.480Z,258.75
2018-03-29T10:07:32.475Z,258.75
2018-03-29T10:08:32.465Z,258.75
2018-03-29T10:09:32.458Z,258.75
2018-03-29T10:10:32.448Z,270.00
2018-03-29T10:11:32.443Z,270.00
2018-03-29T10:12:32.436Z,264.38
2018-03-29T10:13:32.428Z,286.88
2018-03-29T10:14:32.422Z,292.50
2018-03-29T10:15:32.415Z,298.13
2018-03-29T10:16:32.414Z,241.88
2018-03-29T10:17:32.402Z,230.63
2018-03-29T10:18:32.403Z,253.13
2018-03-29T10:19:32.388Z,320.63
2018-03-29T10:20:32.381Z,303.75
2018-03-29T10:21:32.378Z,303.75
2018-03-29T10:22:32.369Z,253.13
2018-03-29T10:23:32.359Z,230.63
2018-03-29T10:24:32.351Z,230.63
2018-03-29T10:32:10.495Z,219.38
2018-03-29T10:33:10.471Z,236.25
2018-03-29T10:35:03.334Z,286.88
2018-03-29T10:36:03.302Z,247.50
2018-03-29T10:37:56.202Z,253.13
2018-03-29T10:38:56.159Z,337.50
2018-03-29T10:39:56.145Z,337.50
2018-03-29T10:40:56.157Z,286.88
2018-03-29T10:41:56.138Z,331.88
2018-03-29T10:42:56.175Z,354.38
2018-03-29T10:43:56.128Z,376.88
2018-03-29T10:44:56.119Z,393.75
2018-03-29T10:45:56.097Z,421.88
2018-03-29T10:46:56.096Z,371.25
2018-03-29T10:47:56.096Z,303.75
2018-03-29T10:48:56.093Z,315.00
2018-03-29T10:49:56.077Z,315.00
2018-03-29T10:50:56.060Z,320.63
2018-03-29T10:51:56.065Z,371.25
2018-03-29T10:52:56.046Z,405.00
2018-03-29T10:53:56.044Z,376.88
2018-03-29T10:54:56.030Z,393.75
2018-03-29T10:55:56.047Z,450.00
2018-03-29T10:56:56.024Z,483.75
2018-03-29T10:57:56.021Z,461.25
2018-03-29T10:58:56.010Z,450.00
2018-03-29T10:59:56.005Z,461.25
2018-03-29T11:00:55.994Z,466.88
2018-03-29T11:01:55.994Z,450.00
2018-03-29T11:02:55.986Z,433.13
2018-03-29T11:03:55.979Z,421.88
2018-03-29T11:04:55.972Z,427.50
2018-03-29T11:05:55.959Z,444.38
2018-03-29T11:06:55.957Z,360.00
2018-03-29T11:07:55.960Z,393.75
2018-03-29T11:08:55.956Z,500.63
2018-03-29T11:09:55.933Z,405.00
2018-03-29T11:10:55.929Z,534.38
2018-03-29T11:11:55.932Z,472.50
2018-03-29T11:12:55.918Z,624.38
2018-03-29T11:13:55.925Z,697.50
2018-03-29T11:14:55.909Z,562.50
2018-03-29T11:15:55.958Z,703.13
2018-03-29T11:16:55.900Z,849.38
2018-03-29T11:17:55.903Z,770.63
2018-03-29T11:18:55.927Z,585.00
2018-03-29T11:19:55.892Z,545.63
2018-03-29T11:20:55.864Z,472.50
2018-03-29T11:21:55.876Z,511.88
2018-03-29T11:22:55.887Z,945.00
2018-03-29T11:23:55.863Z,1091.25
2018-03-29T11:24:55.852Z,1305.00
2018-03-29T11:25:55.848Z,1051.88
2018-03-29T11:26:55.847Z,590.63
2018-03-29T11:27:55.843Z,568.13
2018-03-29T11:28:55.832Z,568.13
2018-03-29T11:29:55.824Z,776.25
2018-03-29T11:30:55.824Z,500.63
2018-03-29T11:31:55.827Z,500.63
2018-03-29T11:32:55.818Z,1929.38
2018-03-29T11:33:55.828Z,1946.25
2018-03-29T11:34:55.800Z,1918.13
2018-03-29T11:35:55.803Z,1732.50
2018-03-29T11:36:55.793Z,1861.88
2018-03-29T11:37:55.789Z,1861.88
2018-03-29T11:38:55.794Z,1833.75
2018-03-29T11:39:55.781Z,1850.63
2018-03-29T11:40:55.769Z,1800.00
2018-03-29T11:41:55.768Z,315.00
2018-03-29T11:42:55.769Z,1845.00
2018-03-29T11:43:55.768Z,1845.00
2018-03-29T11:44:55.761Z,1878.75
2018-03-29T11:45:55.760Z,1850.63
2018-03-29T11:46:55.747Z,1850.63
2018-03-29T11:47:55.743Z,1822.50
2018-03-29T11:48:55.761Z,1816.88
2018-03-29T11:49:55.761Z,1839.38
2018-03-29T11:50:55.732Z,1890.00
2018-03-29T11:51:55.728Z,1816.88
2018-03-29T11:52:55.735Z,613.13
2018-03-29T11:53:55.751Z,1828.13
2018-03-29T11:54:55.730Z,1794.38
2018-03-29T11:55:55.746Z,393.75
2018-03-29T11:56:55.743Z,1755.00
2018-03-29T11:57:55.702Z,1788.75
2018-03-29T11:58:55.777Z,1833.75
2018-03-29T11:59:55.699Z,1833.75
2018-03-29T12:00:55.695Z,1760.63
2018-03-29T12:01:55.691Z,804.38
2018-03-29T12:02:55.702Z,1850.63
2018-03-29T12:03:55.686Z,1693.13
2018-03-29T12:04:55.675Z,1636.88
2018-03-29T12:05:55.675Z,1749.38
2018-03-29T12:06:55.662Z,1833.75
2018-03-29T12:07:55.674Z,1878.75
2018-03-29T12:08:55.663Z,1850.63
2018-03-29T12:09:55.660Z,1777.50
2018-03-29T12:10:55.662Z,1822.50
2018-03-29T12:11:55.646Z,1783.13
2018-03-29T12:12:55.649Z,1743.75
2018-03-29T12:13:55.669Z,1721.25
2018-03-29T12:14:55.665Z,1732.50
2018-03-29T12:15:55.658Z,1704.38
2018-03-29T12:16:55.632Z,1687.50
2018-03-29T12:17:55.630Z,1642.50
2018-03-29T12:18:55.646Z,1648.13
2018-03-29T12:19:55.634Z,1648.13
2018-03-29T12:20:55.626Z,1642.50
2018-03-29T12:21:55.625Z,1676.25
2018-03-29T12:22:55.620Z,1642.50
2018-03-29T12:23:55.632Z,1563.75
2018-03-29T12:24:55.618Z,1524.38
2018-03-29T12:25:55.620Z,1372.50
2018-03-29T12:26:55.610Z,1293.75
2018-03-29T12:27:55.634Z,1237.50
2018-03-29T12:28:55.613Z,1192.50
2018-03-29T12:29:55.622Z,1091.25
2018-03-29T12:30:55.598Z,1181.25
2018-03-29T12:31:55.596Z,1119.38
2018-03-29T12:32:55.590Z,1074.38
2018-03-29T12:33:55.586Z,1006.88
2018-03-29T12:34:55.596Z,956.25
2018-03-29T12:35:55.590Z,945.00
2018-03-29T12:36:55.587Z,950.63
2018-03-29T12:37:55.582Z,871.88
2018-03-29T12:38:55.573Z,562.50
2018-03-29T12:39:55.577Z,961.88
2018-03-29T12:40:55.587Z,641.25
2018-03-29T12:41:55.570Z,843.75
2018-03-29T12:42:55.576Z,742.50
2018-03-29T12:43:55.574Z,691.88
2018-03-29T12:44:55.597Z,585.00
2018-03-29T12:45:55.554Z,528.75
2018-03-29T12:46:55.558Z,511.88
2018-03-29T12:47:55.557Z,556.88
2018-03-29T12:48:55.608Z,523.13
2018-03-29T12:49:55.598Z,562.50
2018-03-29T12:50:55.549Z,720.00
2018-03-29T12:51:55.546Z,843.75
2018-03-29T12:52:55.543Z,832.50
2018-03-29T12:53:55.564Z,658.13
2018-03-29T12:54:55.584Z,585.00
2018-03-29T12:55:55.543Z,568.13
2018-03-29T12:56:55.558Z,618.75